Terminal Aerodrome Forecast
Issued by NWS

Home | Current Version | Previous Version | Text Only | Print | Product List | Glossary On
Versions: 1 2 3 4 5 6 7 8 9 10 11 12 13 14 15 16 17 18 19
000
FTAK31 PAJN 240537
TAFAJN
TAF
PAJN 240537Z 2406/2506 00000KT P6SM BCFG FEW002 BKN120
      WS020/06025KT
     FM241200 10005KT P6SM VCSH SCT050 BKN100 WS020/06025KT
     FM241800 10010KT P6SM -SHSN BKN040 OVC070 WS020/06020KT
     FM242200 10006KT 3SM -SHSN SCT007 BKN020 OVC040=

USA.gov is the U.S. government's official web portal to all federal, state and local government web resources and services.